createdAt,value
2018-06-28T00:00:53.779Z,23.20
2018-06-28T00:03:20.223Z,23.10
2018-06-28T00:05:46.909Z,23.10
2018-06-28T00:08:13.461Z,23.10
2018-06-28T00:10:39.964Z,23.10
2018-06-28T00:13:06.459Z,23.10
2018-06-28T00:15:34.798Z,23.10
2018-06-28T00:18:01.305Z,23.20
2018-06-28T00:20:28.337Z,23.10
2018-06-28T00:22:54.837Z,23.10
2018-06-28T00:25:21.334Z,23.10
2018-06-28T00:27:47.826Z,23.10
2018-06-28T00:30:14.299Z,23.10
2018-06-28T00:32:40.779Z,23.10
2018-06-28T00:35:07.437Z,23.10
2018-06-28T00:37:33.967Z,23.10
2018-06-28T00:40:01.011Z,23.10
2018-06-28T00:42:27.637Z,23.10
2018-06-28T00:44:54.720Z,23.10
2018-06-28T00:47:21.180Z,23.20
2018-06-28T00:49:47.643Z,23.20
2018-06-28T00:52:14.109Z,23.20
2018-06-28T00:54:40.571Z,23.20
2018-06-28T00:57:07.325Z,23.20
2018-06-28T00:59:33.783Z,23.20
2018-06-28T01:02:00.269Z,23.20
2018-06-28T01:04:26.837Z,23.20
2018-06-28T01:06:53.327Z,23.20
2018-06-28T01:09:19.783Z,23.30
2018-06-28T01:11:46.247Z,23.30
2018-06-28T01:14:12.820Z,23.30
2018-06-28T01:16:39.296Z,23.30
2018-06-28T01:19:06.080Z,23.30
2018-06-28T01:21:32.539Z,23.30
2018-06-28T01:23:59.037Z,23.30
2018-06-28T01:26:25.605Z,23.30
2018-06-28T01:28:52.079Z,23.30
2018-06-28T01:31:18.556Z,23.30
2018-06-28T01:33:45.024Z,23.30
2018-06-28T01:36:11.495Z,23.30
2018-06-28T01:38:38.030Z,23.30
2018-06-28T01:41:04.549Z,23.30
2018-06-28T01:43:34.175Z,23.30
2018-06-28T01:46:00.769Z,23.30
2018-06-28T01:48:27.224Z,23.30
2018-06-28T01:50:53.672Z,23.30
2018-06-28T01:53:20.155Z,23.30
2018-06-28T01:55:46.911Z,23.30
2018-06-28T01:58:13.352Z,23.30
2018-06-28T02:00:39.785Z,23.30
2018-06-28T02:03:06.230Z,23.30
2018-06-28T02:05:32.942Z,23.30
2018-06-28T02:07:59.388Z,23.30
2018-06-28T02:10:25.855Z,23.30
2018-06-28T02:12:52.324Z,23.30
2018-06-28T02:15:18.806Z,23.20
2018-06-28T02:17:45.336Z,23.20
2018-06-28T02:20:11.782Z,23.20
2018-06-28T02:22:38.260Z,23.20
2018-06-28T02:25:04.907Z,23.20
2018-06-28T02:27:31.397Z,23.20
2018-06-28T02:29:57.896Z,23.10
2018-06-28T02:32:25.065Z,23.10
2018-06-28T02:34:51.567Z,23.10
2018-06-28T02:37:18.175Z,23.20
2018-06-28T02:39:44.647Z,23.10
2018-06-28T02:42:11.112Z,23.10
2018-06-28T02:44:37.603Z,23.10
2018-06-28T02:47:04.072Z,23.10
2018-06-28T02:49:30.531Z,23.10
2018-06-28T02:51:56.986Z,23.10
2018-06-28T02:54:23.423Z,23.10
2018-06-28T02:56:49.903Z,23.10
2018-06-28T02:59:16.382Z,23.10
2018-06-28T03:01:43.150Z,23.10
2018-06-28T03:04:09.611Z,23.10
2018-06-28T03:06:36.726Z,23.10
2018-06-28T03:09:03.749Z,23.10
2018-06-28T03:11:30.226Z,23.00
2018-06-28T03:13:56.700Z,23.00
2018-06-28T03:16:23.170Z,23.10
2018-06-28T03:18:49.630Z,23.00
2018-06-28T03:21:16.100Z,23.00
2018-06-28T03:23:42.576Z,23.00
2018-06-28T03:26:09.664Z,23.00
2018-06-28T03:28:36.120Z,23.00
2018-06-28T03:31:02.615Z,23.00
2018-06-28T03:33:29.092Z,23.00
2018-06-28T03:35:55.697Z,23.00
2018-06-28T03:38:22.207Z,23.00
2018-06-28T03:40:48.676Z,23.00
2018-06-28T03:43:15.204Z,23.00
2018-06-28T03:45:41.690Z,23.00
2018-06-28T03:48:08.182Z,23.10
2018-06-28T03:50:34.694Z,23.10
2018-06-28T03:53:01.164Z,23.10
2018-06-28T03:55:28.095Z,23.10
2018-06-28T03:57:54.569Z,23.10
2018-06-28T04:00:21.048Z,23.10
2018-06-28T04:02:47.529Z,23.20
2018-06-28T04:05:13.998Z,23.20
2018-06-28T04:07:40.504Z,23.10
2018-06-28T04:10:06.952Z,23.10
2018-06-28T04:12:33.402Z,23.10
2018-06-28T04:14:59.850Z,23.10
2018-06-28T04:17:26.290Z,23.20
2018-06-28T04:19:52.724Z,23.20
2018-06-28T04:22:24.122Z,23.10
2018-06-28T04:24:50.877Z,23.20
2018-06-28T04:27:17.330Z,23.10
2018-06-28T04:29:43.811Z,23.10
2018-06-28T04:32:10.281Z,23.10
2018-06-28T04:34:36.866Z,23.10
2018-06-28T04:37:03.301Z,23.20
2018-06-28T04:39:29.736Z,23.20
2018-06-28T04:41:56.233Z,23.10
2018-06-28T04:44:22.682Z,23.10
2018-06-28T04:46:49.152Z,23.20
2018-06-28T04:49:15.635Z,23.20
2018-06-28T04:51:42.131Z,23.20
2018-06-28T04:54:08.599Z,23.20
2018-06-28T04:56:35.064Z,23.20
2018-06-28T04:59:01.522Z,23.20
2018-06-28T05:01:28.008Z,23.20
2018-06-28T05:03:54.457Z,23.10
2018-06-28T05:06:20.913Z,23.20
2018-06-28T05:08:47.447Z,23.20
2018-06-28T05:11:13.934Z,23.20
2018-06-28T05:13:40.417Z,23.20
2018-06-28T05:16:06.889Z,23.20
2018-06-28T05:18:33.355Z,23.20
2018-06-28T05:20:59.838Z,23.20
2018-06-28T05:23:26.310Z,23.20
2018-06-28T05:25:52.745Z,23.10
2018-06-28T05:28:19.195Z,23.10
2018-06-28T05:30:45.695Z,23.10
2018-06-28T05:33:12.173Z,23.10
2018-06-28T05:35:39.191Z,23.10
2018-06-28T05:38:05.684Z,23.10
2018-06-28T05:40:32.141Z,23.10
2018-06-28T05:42:58.620Z,23.10
2018-06-28T05:45:25.071Z,23.10
2018-06-28T05:47:51.506Z,23.10
2018-06-28T05:50:17.955Z,23.10
2018-06-28T05:52:44.422Z,23.10
2018-06-28T05:55:10.897Z,23.10
2018-06-28T05:57:37.353Z,23.10
2018-06-28T06:00:03.905Z,23.10
2018-06-28T06:02:30.393Z,23.10
2018-06-28T06:04:56.870Z,23.10
2018-06-28T06:07:23.355Z,23.10
2018-06-28T06:09:49.827Z,23.10
2018-06-28T06:12:16.277Z,23.10
2018-06-28T06:14:42.753Z,23.10
2018-06-28T06:17:09.245Z,23.10
2018-06-28T06:19:35.715Z,23.00
2018-06-28T06:22:02.133Z,23.10
2018-06-28T06:24:28.651Z,23.00
2018-06-28T06:26:55.090Z,23.10
2018-06-28T06:29:21.608Z,23.10
2018-06-28T06:31:48.077Z,23.10
2018-06-28T06:34:14.580Z,23.10
2018-06-28T06:36:41.055Z,23.20
2018-06-28T06:39:07.535Z,23.20
2018-06-28T06:41:33.998Z,23.20
2018-06-28T06:44:00.498Z,23.10
2018-06-28T06:46:26.990Z,23.10
2018-06-28T06:48:53.438Z,23.10
2018-06-28T06:51:19.870Z,23.10
2018-06-28T06:53:46.332Z,23.10
2018-06-28T06:56:12.790Z,23.20
2018-06-28T06:58:39.271Z,23.20
2018-06-28T07:01:05.760Z,23.20
2018-06-28T07:03:32.301Z,23.20
2018-06-28T07:05:58.758Z,23.30
2018-06-28T07:08:25.219Z,23.30
2018-06-28T07:10:51.698Z,23.20
2018-06-28T07:13:18.156Z,23.20
2018-06-28T07:15:44.610Z,23.20
2018-06-28T07:18:11.050Z,23.20
2018-06-28T07:20:37.559Z,23.30
2018-06-28T07:23:04.053Z,23.30
2018-06-28T07:25:30.548Z,23.30
2018-06-28T07:27:57.026Z,23.30
2018-06-28T07:30:23.486Z,23.30
2018-06-28T07:32:49.968Z,23.30
2018-06-28T07:35:16.444Z,23.30
2018-06-28T07:37:42.956Z,23.30
2018-06-28T07:40:09.449Z,23.30
2018-06-28T07:42:35.944Z,23.30
2018-06-28T07:45:02.516Z,23.30
2018-06-28T07:47:29.063Z,23.30
2018-06-28T07:49:55.566Z,23.30
2018-06-28T07:52:22.076Z,23.30
2018-06-28T07:54:48.555Z,23.30
2018-06-28T07:57:15.067Z,23.30
2018-06-28T07:59:41.876Z,23.30
2018-06-28T08:02:08.330Z,23.20
2018-06-28T08:04:35.054Z,23.30
2018-06-28T08:07:01.517Z,23.30
2018-06-28T08:09:28.000Z,23.30
2018-06-28T08:11:54.495Z,23.30
2018-06-28T08:14:21.007Z,23.30
2018-06-28T08:16:47.470Z,23.30
2018-06-28T08:19:13.938Z,23.30
2018-06-28T08:21:40.436Z,23.40
2018-06-28T08:24:06.911Z,23.30
2018-06-28T08:26:33.472Z,23.30
2018-06-28T08:28:59.956Z,23.30
2018-06-28T08:31:26.432Z,23.30
2018-06-28T08:33:52.914Z,23.30
2018-06-28T08:36:19.388Z,23.30
2018-06-28T08:38:45.864Z,23.30
2018-06-28T08:41:12.355Z,23.20
2018-06-28T08:43:39.060Z,23.20
2018-06-28T08:48:32.588Z,23.10
2018-06-28T08:50:59.119Z,23.10
2018-06-28T08:53:25.703Z,23.10
2018-06-28T08:55:52.211Z,23.10
2018-06-28T08:58:18.764Z,23.20
2018-06-28T09:00:45.569Z,23.20
2018-06-28T09:03:12.060Z,23.20
2018-06-28T09:05:38.600Z,23.30
2018-06-28T09:08:05.046Z,23.30
2018-06-28T09:10:31.536Z,23.30
2018-06-28T09:12:58.017Z,23.30
2018-06-28T09:15:24.564Z,23.30
2018-06-28T09:17:51.002Z,23.30
2018-06-28T09:20:17.491Z,23.30
2018-06-28T09:22:44.044Z,23.30
2018-06-28T09:25:10.538Z,23.30
2018-06-28T09:27:37.012Z,23.30
2018-06-28T09:30:03.495Z,23.30
2018-06-28T09:32:29.962Z,23.30
2018-06-28T09:34:56.500Z,23.30
2018-06-28T09:37:23.015Z,23.30
2018-06-28T09:39:49.493Z,23.30
2018-06-28T09:42:15.985Z,23.30
2018-06-28T09:44:42.469Z,23.30
2018-06-28T09:47:08.961Z,23.20
2018-06-28T09:49:35.455Z,23.30
2018-06-28T09:52:01.933Z,23.30
2018-06-28T09:54:28.421Z,23.20
2018-06-28T09:56:54.932Z,23.20
2018-06-28T09:59:21.410Z,23.20
2018-06-28T10:01:47.932Z,23.20
2018-06-28T10:04:14.400Z,23.30
2018-06-28T10:06:40.917Z,23.30
2018-06-28T10:09:08.281Z,23.30
2018-06-28T10:11:34.758Z,23.30
2018-06-28T10:14:01.239Z,23.30
2018-06-28T10:16:27.727Z,23.30
2018-06-28T10:18:54.279Z,23.30
2018-06-28T10:21:20.784Z,23.40
2018-06-28T10:23:47.293Z,23.40
2018-06-28T10:26:13.901Z,23.40
2018-06-28T10:28:40.388Z,23.40
2018-06-28T10:31:06.853Z,23.40
2018-06-28T10:33:33.313Z,23.40
2018-06-28T10:35:59.817Z,23.40
2018-06-28T10:38:26.317Z,23.40
2018-06-28T10:40:52.892Z,23.40
2018-06-28T10:43:19.435Z,23.40
2018-06-28T10:45:45.929Z,23.40
2018-06-28T10:48:12.411Z,23.50
2018-06-28T10:50:38.992Z,23.40
2018-06-28T10:53:05.490Z,23.40
2018-06-28T10:55:32.481Z,23.40
2018-06-28T10:57:59.059Z,23.40
2018-06-28T11:00:25.591Z,23.40
2018-06-28T11:02:52.045Z,23.50
2018-06-28T11:05:18.528Z,23.50
2018-06-28T11:07:45.059Z,23.50
2018-06-28T11:10:11.603Z,23.50
2018-06-28T11:12:38.086Z,23.50
2018-06-28T11:15:04.665Z,23.60
2018-06-28T11:17:31.218Z,23.60
2018-06-28T11:20:03.346Z,23.60
2018-06-28T11:22:29.905Z,23.60
2018-06-28T11:24:56.393Z,23.70
2018-06-28T11:27:22.861Z,23.60
2018-06-28T11:29:49.333Z,23.60
2018-06-28T11:32:15.870Z,23.60
2018-06-28T11:34:42.319Z,23.60
2018-06-28T11:37:08.828Z,23.70
2018-06-28T11:39:35.296Z,23.70
2018-06-28T11:42:01.999Z,23.70
2018-06-28T11:44:28.558Z,23.60
2018-06-28T11:46:55.077Z,23.60
2018-06-28T11:49:21.519Z,23.60
2018-06-28T11:51:48.016Z,23.60
2018-06-28T11:54:14.506Z,23.60
2018-06-28T11:56:41.016Z,23.60
2018-06-28T11:59:07.504Z,23.60
2018-06-28T12:01:33.989Z,23.60
2018-06-28T12:04:00.470Z,23.60
2018-06-28T12:06:26.992Z,23.60
2018-06-28T12:08:53.510Z,23.60
2018-06-28T12:11:20.214Z,23.60
2018-06-28T12:13:46.683Z,23.50
2018-06-28T12:16:13.186Z,23.50
2018-06-28T12:18:39.714Z,23.50
2018-06-28T12:21:06.205Z,23.50
2018-06-28T12:23:32.738Z,23.50
2018-06-28T12:25:59.274Z,23.50
2018-06-28T12:28:25.752Z,23.80
2018-06-28T12:30:52.278Z,23.50
2018-06-28T12:33:18.849Z,23.50
2018-06-28T12:35:45.349Z,23.50
2018-06-28T12:38:11.833Z,23.50
2018-06-28T12:40:38.328Z,23.50
2018-06-28T12:43:05.455Z,23.30
2018-06-28T12:45:31.924Z,23.40
2018-06-28T12:47:59.597Z,23.50
2018-06-28T12:50:26.052Z,23.40
2018-06-28T12:52:54.934Z,23.40
2018-06-28T12:55:22.481Z,23.40
2018-06-28T12:57:49.204Z,23.40
2018-06-28T13:00:16.260Z,23.40
2018-06-28T13:02:42.911Z,23.40
2018-06-28T13:05:09.740Z,23.40
2018-06-28T13:07:36.461Z,23.40
2018-06-28T13:10:03.206Z,23.40
2018-06-28T13:12:30.022Z,23.40
2018-06-28T13:14:56.496Z,23.40
2018-06-28T13:17:22.964Z,23.30
2018-06-28T13:19:49.517Z,23.40
2018-06-28T13:22:16.072Z,23.30
2018-06-28T13:24:43.184Z,23.30
2018-06-28T13:27:09.828Z,23.40
2018-06-28T13:29:36.319Z,23.40
2018-06-28T13:32:02.816Z,23.30
2018-06-28T13:34:29.313Z,23.30
2018-06-28T13:36:55.784Z,23.30
2018-06-28T13:39:22.307Z,23.30
2018-06-28T13:41:48.795Z,23.40
2018-06-28T13:44:15.357Z,23.40
2018-06-28T13:46:41.843Z,23.40
2018-06-28T13:49:08.887Z,23.40
2018-06-28T13:51:35.421Z,23.40
2018-06-28T13:54:01.923Z,23.40
2018-06-28T13:56:28.413Z,23.40
2018-06-28T13:58:54.846Z,23.40
2018-06-28T14:01:21.421Z,23.40
2018-06-28T14:03:47.906Z,23.40
2018-06-28T14:06:14.483Z,23.40
2018-06-28T14:08:40.960Z,23.50
2018-06-28T14:11:08.005Z,23.50
2018-06-28T14:13:34.617Z,23.50
2018-06-28T14:16:01.139Z,23.50
2018-06-28T14:18:27.600Z,23.50
2018-06-28T14:20:54.052Z,23.50
2018-06-28T14:23:20.542Z,23.50
2018-06-28T14:25:47.012Z,23.50
2018-06-28T14:28:13.516Z,23.50
2018-06-28T14:30:40.029Z,23.40
2018-06-28T14:33:06.500Z,23.50
2018-06-28T14:35:33.254Z,23.50
2018-06-28T14:37:59.702Z,23.50
2018-06-28T14:40:26.250Z,23.50
2018-06-28T14:42:52.765Z,23.50
2018-06-28T14:45:20.161Z,23.40
2018-06-28T14:47:46.647Z,23.50
2018-06-28T14:50:13.124Z,23.50
2018-06-28T14:52:39.591Z,23.50
2018-06-28T14:55:06.712Z,23.50
2018-06-28T14:57:33.257Z,23.50
2018-06-28T14:59:59.861Z,23.50
2018-06-28T15:02:26.359Z,23.50
2018-06-28T15:04:52.798Z,23.50
2018-06-28T15:07:19.300Z,23.50
2018-06-28T15:09:45.809Z,23.50
2018-06-28T15:12:12.284Z,23.50
2018-06-28T15:14:38.782Z,23.50
2018-06-28T15:17:05.257Z,23.50
2018-06-28T15:19:31.731Z,23.40
2018-06-28T15:21:58.218Z,23.50
2018-06-28T15:24:24.704Z,23.40
2018-06-28T15:29:18.265Z,23.40
2018-06-28T15:31:44.710Z,23.40
2018-06-28T15:34:11.166Z,23.40
2018-06-28T15:36:37.654Z,23.40
2018-06-28T15:39:04.237Z,23.40
2018-06-28T15:41:30.710Z,23.40
2018-06-28T15:43:57.188Z,23.40
2018-06-28T15:46:23.646Z,23.30
2018-06-28T15:48:50.177Z,23.30
2018-06-28T15:51:16.732Z,23.40
2018-06-28T15:53:43.282Z,23.40
2018-06-28T15:56:09.834Z,23.50
2018-06-28T15:58:36.328Z,23.50
2018-06-28T16:01:02.899Z,23.50
2018-06-28T16:03:29.387Z,23.60
2018-06-28T16:05:55.848Z,23.50
2018-06-28T16:08:22.330Z,23.50
2018-06-28T16:10:48.834Z,23.50
2018-06-28T16:13:15.321Z,23.50
2018-06-28T16:15:41.900Z,23.50
2018-06-28T16:18:09.572Z,23.50
2018-06-28T16:20:36.140Z,23.50
2018-06-28T16:23:02.632Z,23.50
2018-06-28T16:25:29.756Z,23.60
2018-06-28T16:27:56.381Z,23.50
2018-06-28T16:30:22.902Z,23.50
2018-06-28T16:32:49.770Z,23.50
2018-06-28T16:35:17.079Z,23.50
2018-06-28T16:37:43.550Z,23.40
2018-06-28T16:40:10.087Z,23.40
2018-06-28T16:42:36.566Z,23.40
2018-06-28T16:45:03.992Z,23.40
2018-06-28T16:47:30.597Z,23.40
2018-06-28T16:49:57.149Z,23.40
2018-06-28T16:52:23.645Z,23.50
2018-06-28T16:54:50.148Z,23.40
2018-06-28T16:57:16.708Z,23.40
2018-06-28T16:59:43.328Z,23.40
2018-06-28T17:02:09.695Z,23.50
2018-06-28T17:04:36.144Z,23.50
2018-06-28T17:07:02.692Z,23.50
2018-06-28T17:09:29.230Z,23.50
2018-06-28T17:11:55.718Z,23.50
2018-06-28T17:14:22.868Z,23.50
2018-06-28T17:16:49.344Z,23.60
2018-06-28T17:19:15.807Z,23.60
2018-06-28T17:21:42.274Z,23.60
2018-06-28T17:26:36.001Z,23.70
2018-06-28T17:29:02.513Z,23.80
2018-06-28T17:31:28.976Z,23.80
2018-06-28T17:33:56.121Z,23.80
2018-06-28T17:36:22.597Z,23.80
2018-06-28T17:38:49.077Z,23.80
2018-06-28T17:41:15.582Z,23.80
2018-06-28T17:43:42.167Z,23.80
2018-06-28T17:46:08.677Z,23.80
2018-06-28T17:48:35.150Z,23.80
2018-06-28T17:51:01.736Z,23.70
2018-06-28T17:53:28.199Z,23.70
2018-06-28T17:55:54.696Z,23.70
2018-06-28T17:58:21.287Z,23.70
2018-06-28T18:00:48.481Z,23.70
2018-06-28T18:03:14.980Z,23.80
2018-06-28T18:05:41.491Z,23.80
2018-06-28T18:08:07.981Z,23.80
2018-06-28T18:10:34.497Z,23.80
2018-06-28T18:13:01.387Z,23.80
2018-06-28T18:15:28.465Z,23.80
2018-06-28T18:17:55.083Z,23.80
2018-06-28T18:20:21.533Z,23.80
2018-06-28T18:22:47.988Z,23.80
2018-06-28T18:25:14.479Z,23.70
2018-06-28T18:27:40.952Z,23.70
2018-06-28T18:30:07.465Z,23.70
2018-06-28T18:32:33.911Z,23.70
2018-06-28T18:35:00.504Z,23.60
2018-06-28T18:37:26.994Z,23.70
2018-06-28T18:39:53.462Z,23.70
2018-06-28T18:42:19.950Z,23.70
2018-06-28T18:44:46.484Z,23.70
2018-06-28T18:47:13.478Z,23.70
2018-06-28T18:49:39.950Z,23.70
2018-06-28T18:52:06.828Z,23.60
2018-06-28T18:54:33.314Z,23.70
2018-06-28T18:56:59.782Z,23.60
2018-06-28T18:59:26.308Z,23.60
2018-06-28T19:04:19.696Z,23.60
2018-06-28T19:06:46.208Z,23.60
2018-06-28T19:09:12.702Z,23.50
2018-06-28T19:11:39.310Z,23.60
2018-06-28T19:14:11.611Z,23.50
2018-06-28T19:16:43.690Z,23.50
2018-06-28T19:19:10.181Z,23.50
2018-06-28T19:21:42.441Z,23.50
2018-06-28T19:24:08.931Z,23.50
2018-06-28T19:26:35.468Z,23.50
2018-06-28T19:29:07.572Z,23.50
2018-06-28T19:31:39.602Z,23.50
2018-06-28T19:34:06.071Z,23.50
2018-06-28T19:36:32.554Z,23.50
2018-06-28T19:40:08.300Z,23.50
2018-06-28T19:42:40.336Z,23.50
2018-06-28T19:45:07.146Z,23.50
2018-06-28T19:47:33.892Z,23.50
2018-06-28T19:50:06.047Z,23.50
2018-06-28T19:52:38.089Z,23.50
2018-06-28T19:55:04.575Z,23.60
2018-06-28T19:57:31.461Z,23.50
2018-06-28T19:59:57.954Z,23.60
2018-06-28T20:02:30.072Z,23.50
2018-06-28T20:04:56.564Z,23.50
2018-06-28T20:07:23.024Z,23.50
2018-06-28T20:09:49.542Z,23.40
2018-06-28T20:12:21.626Z,23.50
2018-06-28T20:14:53.666Z,23.40
2018-06-28T20:17:25.636Z,23.50
2018-06-28T20:22:30.510Z,23.50
2018-06-28T20:24:57.044Z,23.50
2018-06-28T20:27:29.166Z,23.50
2018-06-28T20:30:01.346Z,23.60
2018-06-28T20:32:33.660Z,23.60
2018-06-28T20:35:00.215Z,23.60
2018-06-28T20:37:26.738Z,23.60
2018-06-28T20:39:53.266Z,23.60
2018-06-28T20:42:19.789Z,23.60
2018-06-28T20:44:46.279Z,23.70
2018-06-28T20:47:13.284Z,23.70
2018-06-28T20:49:39.965Z,23.60
2018-06-28T20:52:06.408Z,23.70
2018-06-28T20:54:32.964Z,23.70
2018-06-28T20:56:59.418Z,23.70
2018-06-28T20:59:26.008Z,23.70
2018-06-28T21:01:52.498Z,23.70
2018-06-28T21:04:19.017Z,23.70
2018-06-28T21:06:45.584Z,23.70
2018-06-28T21:09:12.071Z,23.70
2018-06-28T21:11:38.522Z,23.70
2018-06-28T21:14:05.003Z,23.70
2018-06-28T21:16:31.846Z,23.70
2018-06-28T21:18:58.340Z,23.70
2018-06-28T21:21:24.783Z,23.70
2018-06-28T21:23:51.430Z,23.70
2018-06-28T21:26:17.924Z,23.70
2018-06-28T21:28:44.422Z,23.90
2018-06-28T21:31:10.898Z,23.90
2018-06-28T21:33:37.335Z,24.00
2018-06-28T21:36:03.886Z,23.90
2018-06-28T21:38:30.340Z,23.90
2018-06-28T21:40:56.863Z,23.90
2018-06-28T21:43:23.463Z,23.90
2018-06-28T21:45:49.928Z,23.80
2018-06-28T21:48:16.435Z,23.80
2018-06-28T21:50:42.927Z,23.80
2018-06-28T21:53:09.385Z,23.80
2018-06-28T21:55:35.985Z,23.70
2018-06-28T21:58:02.426Z,23.70
2018-06-28T22:00:30.694Z,23.70
2018-06-28T22:02:57.693Z,23.70
2018-06-28T22:05:24.167Z,23.70
2018-06-28T22:07:50.702Z,23.60
2018-06-28T22:10:17.201Z,23.60
2018-06-28T22:15:16.337Z,23.60
2018-06-28T22:17:42.817Z,23.50
2018-06-28T22:20:09.247Z,23.50
2018-06-28T22:22:35.718Z,23.50
2018-06-28T22:25:02.188Z,23.40
2018-06-28T22:27:28.662Z,23.50
2018-06-28T22:29:55.147Z,23.50
2018-06-28T22:32:22.139Z,23.40
2018-06-28T22:34:48.589Z,23.40
2018-06-28T22:37:15.092Z,23.40
2018-06-28T22:39:41.539Z,23.40
2018-06-28T22:42:08.043Z,23.40
2018-06-28T22:44:34.482Z,23.40
2018-06-28T22:47:00.940Z,23.40
2018-06-28T22:49:27.407Z,23.40
2018-06-28T22:51:54.119Z,23.40
2018-06-28T22:54:20.548Z,23.40
2018-06-28T22:56:47.066Z,23.40
2018-06-28T22:59:13.568Z,23.40
2018-06-28T23:01:40.133Z,23.40
2018-06-28T23:04:07.143Z,23.40
2018-06-28T23:06:33.765Z,23.30
2018-06-28T23:09:00.248Z,23.30
2018-06-28T23:11:26.821Z,23.40
2018-06-28T23:13:53.280Z,23.30
2018-06-28T23:16:19.756Z,23.30
2018-06-28T23:18:46.241Z,23.30
2018-06-28T23:21:12.735Z,23.30
2018-06-28T23:23:39.227Z,23.30
2018-06-28T23:26:06.246Z,23.30
2018-06-28T23:28:32.711Z,23.40
2018-06-28T23:30:59.209Z,23.40
2018-06-28T23:33:25.664Z,23.40
2018-06-28T23:35:52.133Z,23.50
2018-06-28T23:38:18.711Z,23.50
2018-06-28T23:40:45.239Z,23.50
2018-06-28T23:43:11.700Z,23.50
2018-06-28T23:48:05.150Z,23.50
2018-06-28T23:50:31.640Z,23.50
2018-06-28T23:52:58.768Z,23.50
2018-06-28T23:55:27.218Z,23.50
2018-06-28T23:57:53.719Z,23.50
